Terminal Aerodrome Forecast
Issued by NWS

Home | Current Version | Previous Version | Text Only | Print | Product List | Glossary On
Versions: 1 2 3 4 5 6 7 8 9 10 11 12 13 14 15 16 17 18
000
FTAK31 PAFA 190554 AAA
TAFAOR
TAF AMD
PAOR 190554Z 1906/2006 00000KT P6SM BCFG SCT002
      TEMPO 1906/1910 5SM BR BKN002
     FM191800 00000KT P6SM SCT200
     FM200000 00000KT P6SM OVC100=

USA.gov is the U.S. government's official web portal to all federal, state and local government web resources and services.